Time;durP1;ratioP1;P1;durP2;ratioP2;P2;SDS_P1;SDS_P2;PMS_P1;PMS_P2;Temp;Humidity;BMP_temperature;BMP_pressure;BME280_temperature;BME280_humidity;BME280_pressure;Samples;Min_cycle;Max_cycle;Signal;HPM_P1;HPM_P2
2022/09/05 00:00:04;;;;;;;7.68;3.45;;;16.40;99.90;;;;;;5072185;28;20207;-66
2022/09/05 00:03:05;;;;;;;4.20;3.20;;;16.30;99.90;;;;;;5072977;28;20630;-66
2022/09/05 00:05:44;;;;;;;4.40;3.08;;;16.30;99.90;;;;;;5073048;28;20206;-65
2022/09/05 00:08:43;;;;;;;4.25;2.80;;;16.20;99.90;;;;;;5077005;28;20222;-66
2022/09/05 00:11:18;;;;;;;3.78;2.47;;;16.20;99.90;;;;;;5077068;28;20523;-66
2022/09/05 00:14:33;;;;;;;2.58;2.38;;;16.10;99.90;;;;;;5075502;28;20211;-66
2022/09/05 00:17:33;;;;;;;2.75;2.20;;;16.20;99.90;;;;;;5076291;28;20218;-65
2022/09/05 00:20:32;;;;;;;2.38;2.17;;;16.20;99.90;;;;;;5076894;28;20572;-66
2022/09/05 00:23:31;;;;;;;2.00;1.90;;;16.10;99.90;;;;;;5076850;28;20198;-67
2022/09/05 00:26:34;;;;;;;3.85;1.92;;;16.10;99.90;;;;;;5078655;28;20195;-66
2022/09/05 00:29:16;;;;;;;2.08;1.70;;;16.10;99.90;;;;;;5075798;28;20211;-66
2022/09/05 00:32:14;;;;;;;3.28;1.75;;;16.10;99.90;;;;;;5075900;28;20191;-65
2022/09/05 00:35:05;;;;;;;2.20;2.00;;;16.00;99.90;;;;;;5076732;28;20209;-65
2022/09/05 00:37:37;;;;;;;2.15;1.95;;;16.00;99.90;;;;;;5076412;28;20248;-66
2022/09/05 00:40:21;;;;;;;2.25;1.92;;;16.00;99.90;;;;;;5075615;28;20662;-66
2022/09/05 00:42:54;;;;;;;1.98;1.88;;;15.90;99.90;;;;;;5075626;28;20199;-66
2022/09/05 00:45:28;;;;;;;2.85;1.88;;;15.90;99.90;;;;;;5075183;28;20199;-66
2022/09/05 00:48:05;;;;;;;2.38;2.17;;;15.90;99.90;;;;;;5077515;28;20214;-66
2022/09/05 00:50:45;;;;;;;2.40;2.20;;;15.90;99.90;;;;;;5076373;28;20179;-66
2022/09/05 00:53:20;;;;;;;5.97;2.30;;;15.90;99.90;;;;;;5073947;28;20191;-65
2022/09/05 00:55:59;;;;;;;2.70;2.47;;;15.90;99.90;;;;;;5075569;28;20198;-65
2022/09/05 00:58:40;;;;;;;3.10;2.80;;;15.90;99.90;;;;;;5074746;28;20219;-66
2022/09/05 01:01:27;;;;;;;4.85;2.90;;;15.90;99.90;;;;;;5074739;28;20707;-66
2022/09/05 01:04:29;;;;;;;2.47;2.22;;;15.90;99.90;;;;;;5083387;28;20557;-65
2022/09/05 01:07:23;;;;;;;4.72;2.17;;;15.80;99.90;;;;;;5092012;28;20198;-66
2022/09/05 01:10:06;;;;;;;3.35;2.38;;;15.80;99.90;;;;;;5089887;28;20192;-65
2022/09/05 01:12:50;;;;;;;3.03;2.50;;;15.80;99.90;;;;;;5075849;28;20195;-66
2022/09/05 01:15:26;;;;;;;3.63;2.47;;;15.70;99.90;;;;;;5100810;28;20552;-65
2022/09/05 01:18:19;;;;;;;3.35;2.50;;;15.70;99.90;;;;;;5096279;28;20234;-65
2022/09/05 01:21:09;;;;;;;2.33;2.00;;;15.70;99.90;;;;;;5075596;28;20218;-65
2022/09/05 01:24:12;;;;;;;4.75;2.60;;;15.60;99.90;;;;;;5076636;28;20207;-66
2022/09/05 01:26:57;;;;;;;2.53;2.10;;;15.60;99.90;;;;;;5066118;28;20194;-65
2022/09/05 01:29:38;;;;;;;4.53;2.13;;;15.50;99.90;;;;;;5075412;28;20195;-66
2022/09/05 01:32:20;;;;;;;2.78;1.80;;;15.50;99.90;;;;;;5075416;28;20195;-65
2022/09/05 01:34:59;;;;;;;2.40;2.20;;;15.50;99.90;;;;;;5075472;28;20187;-66
2022/09/05 01:37:38;;;;;;;4.38;1.80;;;15.50;99.90;;;;;;5078414;28;20210;-65
2022/09/05 01:40:23;;;;;;;3.63;1.90;;;15.40;99.90;;;;;;5095733;28;20198;-65
2022/09/05 01:43:10;;;;;;;3.20;2.00;;;15.40;99.90;;;;;;5080444;28;20203;-66
2022/09/05 01:45:50;;;;;;;2.50;2.10;;;15.40;99.90;;;;;;5094754;28;20205;-66
2022/09/05 01:48:30;;;;;;;3.45;2.10;;;15.40;99.90;;;;;;5095485;28;20229;-65
2022/09/05 01:51:14;;;;;;;2.65;2.03;;;15.40;99.90;;;;;;5095551;28;20206;-65
2022/09/05 01:54:14;;;;;;;2.25;2.05;;;15.30;99.90;;;;;;5095332;28;20551;-67
2022/09/05 01:57:07;;;;;;;3.63;2.20;;;15.30;99.90;;;;;;5095115;28;20202;-66
2022/09/05 01:59:47;;;;;;;2.70;2.50;;;15.20;99.90;;;;;;5095136;28;20195;-66
2022/09/05 02:02:37;;;;;;;4.05;2.40;;;15.20;99.90;;;;;;5090375;28;20230;-65
2022/09/05 02:05:19;;;;;;;3.50;2.20;;;15.20;99.90;;;;;;5072624;28;20218;-65
2022/09/05 02:08:39;;;;;;;4.43;3.00;;;15.20;99.90;;;;;;5074432;28;20231;-66
2022/09/05 02:11:11;;;;;;;4.00;2.88;;;15.10;99.90;;;;;;5074984;28;20211;-66
2022/09/05 02:13:51;;;;;;;4.72;2.67;;;15.10;99.90;;;;;;5074578;28;20210;-66
2022/09/05 02:16:28;;;;;;;3.22;2.33;;;15.00;99.90;;;;;;5074790;28;20257;-65
2022/09/05 02:19:05;;;;;;;4.25;2.42;;;15.00;99.90;;;;;;5074585;28;20223;-66
2022/09/05 02:21:39;;;;;;;3.83;2.13;;;15.00;99.90;;;;;;5073949;28;20689;-66
2022/09/05 02:24:33;;;;;;;3.70;2.40;;;15.00;99.90;;;;;;5074349;28;20666;-64
2022/09/05 02:27:20;;;;;;;3.75;2.42;;;15.00;99.90;;;;;;5074359;28;20214;-66
2022/09/05 02:30:12;;;;;;;2.42;2.22;;;14.90;99.90;;;;;;5074475;28;20207;-65
2022/09/05 02:32:55;;;;;;;3.15;2.20;;;14.90;99.90;;;;;;5074205;28;20214;-66
2022/09/05 02:35:33;;;;;;;2.45;2.05;;;14.90;99.90;;;;;;5074604;28;20728;-66
2022/09/05 02:38:06;;;;;;;3.38;2.28;;;14.90;99.90;;;;;;5074393;28;20226;-66
2022/09/05 02:40:58;;;;;;;2.65;2.45;;;14.90;99.90;;;;;;5074299;28;20235;-67
2022/09/05 02:43:52;;;;;;;2.88;1.90;;;14.80;99.90;;;;;;5074465;28;20211;-66
2022/09/05 02:46:49;;;;;;;3.85;2.20;;;14.80;99.90;;;;;;5073906;28;20571;-66
2022/09/05 02:49:26;;;;;;;3.55;2.30;;;14.80;99.90;;;;;;5074153;28;20203;-65
2022/09/05 02:52:19;;;;;;;3.13;2.42;;;14.80;99.90;;;;;;5074247;28;20703;-66
2022/09/05 02:55:16;;;;;;;6.22;2.28;;;14.80;99.90;;;;;;5074141;28;20199;-66
2022/09/05 02:58:30;;;;;;;5.15;3.22;;;14.80;99.90;;;;;;5073514;28;20252;-66
2022/09/05 03:01:32;;;;;;;3.33;2.22;;;14.80;99.90;;;;;;5073891;28;20230;-66
2022/09/05 03:04:23;;;;;;;3.47;2.47;;;14.70;99.90;;;;;;5073645;28;20572;-65
2022/09/05 03:07:06;;;;;;;2.28;2.05;;;14.70;99.90;;;;;;5073432;28;20199;-65
2022/09/05 03:09:51;;;;;;;2.55;1.98;;;14.60;99.90;;;;;;5073908;28;20211;-65
2022/09/05 03:12:56;;;;;;;5.43;2.40;;;14.60;99.90;;;;;;5073416;28;20214;-65
2022/09/05 03:15:56;;;;;;;1.90;1.80;;;14.60;99.90;;;;;;5073703;28;20221;-65
2022/09/05 03:19:07;;;;;;;2.33;1.95;;;14.60;99.90;;;;;;5073599;28;20219;-66
2022/09/05 03:22:12;;;;;;;2.20;2.00;;;14.50;99.90;;;;;;5085347;28;20237;-66
2022/09/05 03:25:05;;;;;;;2.30;1.98;;;14.50;99.90;;;;;;5093626;28;20182;-65
2022/09/05 03:28:02;;;;;;;5.38;2.10;;;14.50;99.90;;;;;;5092345;28;20230;-66
2022/09/05 03:30:41;;;;;;;3.67;2.00;;;14.40;99.90;;;;;;5066847;28;20206;-66
2022/09/05 03:33:39;;;;;;;3.75;2.05;;;14.40;99.90;;;;;;5085125;28;20199;-65
2022/09/05 03:36:38;;;;;;;4.53;2.13;;;14.40;99.90;;;;;;5073115;28;20200;-66
2022/09/05 03:39:52;;;;;;;3.17;2.03;;;14.40;99.90;;;;;;5072281;28;20218;-65
2022/09/05 03:42:34;;;;;;;5.85;1.88;;;14.40;99.90;;;;;;5025649;28;20739;-65
2022/09/05 03:45:27;;;;;;;4.75;2.08;;;14.40;99.90;;;;;;5073364;28;20207;-66
2022/09/05 03:48:36;;;;;;;2.78;1.90;;;14.40;99.90;;;;;;5073105;28;20227;-66
2022/09/05 03:51:19;;;;;;;4.38;2.35;;;14.30;99.90;;;;;;5071582;28;20194;-66
2022/09/05 03:54:51;;;;;;;4.00;2.30;;;14.30;99.90;;;;;;5072858;28;20194;-66
2022/09/05 03:58:24;;;;;;;5.10;2.53;;;14.20;99.90;;;;;;5072874;28;20218;-65
2022/09/05 04:01:18;;;;;;;4.60;2.50;;;14.20;99.90;;;;;;5011682;28;20203;-67
2022/09/05 04:04:11;;;;;;;3.78;2.22;;;14.10;99.90;;;;;;5011503;28;20189;-65
2022/09/05 04:07:03;;;;;;;3.45;2.42;;;14.10;99.90;;;;;;5071703;28;20194;-66
2022/09/05 04:09:56;;;;;;;5.60;2.17;;;14.10;99.90;;;;;;5077905;28;20567;-65
2022/09/05 04:12:31;;;;;;;3.95;1.95;;;14.00;99.90;;;;;;5093313;28;20659;-66
2022/09/05 04:15:07;;;;;;;2.30;2.10;;;14.00;99.90;;;;;;5093036;28;20185;-66
2022/09/05 04:17:42;;;;;;;4.10;2.25;;;14.00;99.90;;;;;;5083227;28;20225;-65
2022/09/05 04:20:17;;;;;;;4.10;2.17;;;14.00;99.90;;;;;;5072836;28;20191;-66
2022/09/05 04:23:08;;;;;;;3.28;2.35;;;14.00;99.90;;;;;;5072542;28;20229;-65
2022/09/05 04:25:48;;;;;;;3.95;2.00;;;13.90;99.90;;;;;;5072794;28;20203;-65
2022/09/05 04:28:39;;;;;;;4.40;2.60;;;13.90;99.90;;;;;;5072813;28;20211;-65
2022/09/05 04:31:30;;;;;;;2.60;2.03;;;13.80;99.90;;;;;;5072885;28;20207;-65
2022/09/05 04:34:16;;;;;;;5.15;2.38;;;13.80;99.90;;;;;;5072979;28;20210;-65
2022/09/05 04:36:58;;;;;;;3.38;2.22;;;13.80;99.90;;;;;;5072727;28;20194;-66
2022/09/05 04:39:28;;;;;;;3.03;2.22;;;13.80;99.90;;;;;;5072720;28;20192;-65
2022/09/05 04:42:09;;;;;;;2.50;2.22;;;13.80;99.90;;;;;;5072579;28;20202;-66
2022/09/05 04:44:46;;;;;;;3.67;2.63;;;13.80;99.90;;;;;;5072733;28;20183;-66
2022/09/05 04:47:20;;;;;;;6.35;2.30;;;13.70;99.90;;;;;;5072552;28;20214;-67
2022/09/05 04:49:55;;;;;;;4.28;2.40;;;13.70;99.90;;;;;;5072509;28;20205;-65
2022/09/05 04:52:50;;;;;;;3.30;2.10;;;13.60;99.90;;;;;;5076290;28;20209;-67
2022/09/05 04:55:23;;;;;;;2.47;1.95;;;13.70;99.90;;;;;;5076454;28;20202;-66
2022/09/05 04:57:56;;;;;;;2.67;1.80;;;13.70;99.90;;;;;;5076075;28;20802;-67
2022/09/05 05:00:37;;;;;;;2.88;2.00;;;13.70;99.90;;;;;;5076128;28;20190;-67
2022/09/05 05:03:29;;;;;;;3.47;2.00;;;13.60;99.90;;;;;;5076027;28;20210;-66
2022/09/05 05:06:26;;;;;;;3.13;2.22;;;13.60;99.90;;;;;;5075918;28;20559;-65
2022/09/05 05:09:20;;;;;;;2.42;1.98;;;13.60;99.90;;;;;;5076105;28;20227;-67
2022/09/05 05:11:56;;;;;;;2.90;2.00;;;13.60;99.90;;;;;;5076055;28;20183;-66
2022/09/05 05:14:50;;;;;;;2.13;1.70;;;13.50;99.90;;;;;;5076067;28;20175;-65
2022/09/05 05:17:45;;;;;;;2.05;1.90;;;13.50;99.90;;;;;;5075663;28;20218;-65
2022/09/05 05:20:41;;;;;;;2.83;1.92;;;13.50;99.90;;;;;;5075897;28;20178;-66
2022/09/05 05:23:15;;;;;;;2.70;2.10;;;13.50;99.90;;;;;;5075375;28;20223;-66
2022/09/05 05:25:50;;;;;;;2.78;2.08;;;13.60;99.90;;;;;;5076013;28;20191;-66
2022/09/05 05:28:27;;;;;;;3.00;2.40;;;13.60;99.90;;;;;;5075486;28;20210;-66
2022/09/05 05:31:08;;;;;;;2.65;2.05;;;13.60;99.90;;;;;;5075597;28;20183;-66
2022/09/05 05:33:39;;;;;;;3.15;2.70;;;13.70;99.90;;;;;;5075544;28;20661;-66
2022/09/05 05:36:17;;;;;;;3.05;2.45;;;13.70;99.90;;;;;;5075379;28;20657;-66
2022/09/05 05:38:52;;;;;;;3.58;2.13;;;13.70;99.90;;;;;;5075483;28;20222;-66
2022/09/05 05:41:26;;;;;;;4.28;2.30;;;13.70;99.90;;;;;;5075581;28;20187;-66
2022/09/05 05:43:56;;;;;;;2.95;1.92;;;13.70;99.90;;;;;;5075315;28;20210;-66
2022/09/05 05:46:31;;;;;;;2.53;2.17;;;13.70;99.90;;;;;;5080539;28;20190;-65
2022/09/05 05:49:14;;;;;;;3.45;2.33;;;13.80;99.90;;;;;;5095409;28;20233;-65
2022/09/05 05:51:52;;;;;;;2.58;2.35;;;13.90;99.90;;;;;;5095627;28;20213;-65
2022/09/05 05:54:44;;;;;;;5.45;2.95;;;13.90;99.90;;;;;;5095281;28;20182;-66
2022/09/05 05:57:40;;;;;;;3.47;2.65;;;13.90;99.90;;;;;;5095337;28;20210;-66
2022/09/05 06:00:18;;;;;;;2.50;2.08;;;14.00;99.90;;;;;;5094311;28;20202;-66
2022/09/05 06:03:32;;;;;;;3.15;2.67;;;14.00;99.90;;;;;;5094203;28;20183;-65
2022/09/05 06:06:42;;;;;;;5.32;3.03;;;14.10;99.90;;;;;;5095140;28;20187;-66
2022/09/05 06:09:59;;;;;;;3.00;2.40;;;14.10;99.90;;;;;;5065574;28;20245;-66
2022/09/05 06:13:18;;;;;;;4.45;2.63;;;14.20;99.90;;;;;;5032986;28;20200;-66
2022/09/05 06:16:36;;;;;;;5.13;3.05;;;14.30;99.90;;;;;;5094132;28;20206;-66
2022/09/05 06:19:40;;;;;;;4.72;3.08;;;14.40;99.90;;;;;;5062072;28;20214;-66
2022/09/05 06:22:50;;;;;;;5.93;3.63;;;14.40;99.90;;;;;;5094613;28;20199;-67
2022/09/05 06:25:55;;;;;;;4.75;3.28;;;14.50;99.90;;;;;;5094726;28;20214;-65
2022/09/05 06:28:38;;;;;;;3.95;3.55;;;14.60;99.90;;;;;;5094596;28;20221;-66
2022/09/05 06:31:29;;;;;;;5.72;3.85;;;14.70;99.90;;;;;;5094784;28;20198;-66
2022/09/05 06:34:14;;;;;;;6.80;3.88;;;14.80;99.90;;;;;;5093543;28;20555;-67
2022/09/05 06:37:15;;;;;;;5.30;4.55;;;14.90;99.90;;;;;;5094357;28;20224;-66
2022/09/05 06:40:00;;;;;;;7.25;4.47;;;15.10;99.90;;;;;;5094693;28;20194;-66
2022/09/05 06:42:43;;;;;;;6.60;4.85;;;15.10;99.90;;;;;;5094397;28;20202;-66
2022/09/05 06:45:31;;;;;;;7.47;5.68;;;15.40;99.90;;;;;;5094433;28;20581;-65
2022/09/05 06:48:10;;;;;;;7.15;4.78;;;15.50;99.90;;;;;;5075283;28;20720;-66
2022/09/05 06:51:14;;;;;;;4.97;4.47;;;15.60;99.90;;;;;;5074346;28;20194;-67
2022/09/05 06:54:05;;;;;;;7.50;5.13;;;15.80;99.90;;;;;;5064180;28;20203;-67
2022/09/05 06:56:58;;;;;;;6.72;5.05;;;16.00;99.90;;;;;;5073852;28;20675;-65
2022/09/05 07:00:11;;;;;;;6.22;5.18;;;16.20;99.90;;;;;;5074204;28;20179;-66
2022/09/05 07:03:17;;;;;;;5.88;5.38;;;16.40;99.90;;;;;;5073726;28;20642;-65
2022/09/05 07:05:55;;;;;;;5.13;4.25;;;16.50;99.90;;;;;;5073641;28;20215;-65
2022/09/05 07:08:29;;;;;;;6.50;5.03;;;16.70;99.90;;;;;;5074039;28;20222;-66
2022/09/05 07:11:13;;;;;;;5.40;4.90;;;16.90;99.90;;;;;;5072503;28;20199;-66
2022/09/05 07:13:56;;;;;;;6.05;4.72;;;17.00;99.90;;;;;;5073435;28;20202;-66
2022/09/05 07:16:40;;;;;;;5.63;4.88;;;17.30;99.90;;;;;;5090227;28;20201;-68
2022/09/05 07:19:26;;;;;;;5.15;4.32;;;17.50;99.90;;;;;;5094805;28;20221;-65
2022/09/05 07:22:18;;;;;;;4.90;4.28;;;17.60;99.90;;;;;;5093615;28;20213;-67
2022/09/05 07:25:10;;;;;;;4.70;4.22;;;17.70;99.90;;;;;;5078409;28;20214;-67
2022/09/05 07:27:53;;;;;;;4.60;4.13;;;17.90;99.90;;;;;;5073243;28;20211;-66
2022/09/05 07:30:47;;;;;;;4.13;3.60;;;18.10;99.90;;;;;;5073311;28;20180;-68
2022/09/05 07:33:20;;;;;;;5.68;4.07;;;18.20;99.90;;;;;;5073452;28;20179;-66
2022/09/05 07:35:52;;;;;;;4.20;3.80;;;18.30;99.90;;;;;;5073310;28;20183;-67
2022/09/05 07:38:26;;;;;;;5.60;3.90;;;18.50;99.90;;;;;;5073275;28;20215;-66
2022/09/05 07:41:22;;;;;;;4.15;3.78;;;18.50;99.90;;;;;;5073581;28;20198;-67
2022/09/05 07:43:55;;;;;;;5.88;4.13;;;18.50;99.90;;;;;;5073114;28;20198;-67
2022/09/05 07:46:27;;;;;;;5.75;3.70;;;18.60;99.90;;;;;;5072948;28;20195;-66
2022/09/05 07:49:01;;;;;;;5.65;3.92;;;18.60;99.90;;;;;;5073012;28;20214;-66
2022/09/05 07:51:34;;;;;;;12.82;7.80;;;18.80;99.90;;;;;;5073412;28;20179;-66
2022/09/05 07:54:27;;;;;;;5.10;4.15;;;18.90;99.90;;;;;;5073088;28;20202;-67
2022/09/05 07:57:18;;;;;;;7.22;5.32;;;19.00;99.90;;;;;;5073266;28;20214;-66
2022/09/05 08:00:07;;;;;;;6.55;4.07;;;19.10;99.90;;;;;;5072988;28;20198;-66
2022/09/05 08:02:55;;;;;;;8.00;3.92;;;19.30;99.90;;;;;;5072889;28;20197;-67
2022/09/05 08:05:26;;;;;;;4.70;4.30;;;19.40;99.90;;;;;;5072862;28;20222;-66
2022/09/05 08:08:09;;;;;;;4.97;4.13;;;19.50;99.90;;;;;;5072821;28;20211;-66
2022/09/05 08:10:44;;;;;;;4.40;3.83;;;19.80;99.90;;;;;;5072981;28;20195;-66
2022/09/05 08:13:56;;;;;;;4.70;3.88;;;20.00;99.90;;;;;;5072855;28;20684;-67
2022/09/05 08:16:45;;;;;;;4.82;4.07;;;20.20;99.90;;;;;;5092540;28;20194;-67
2022/09/05 08:19:40;;;;;;;7.07;4.35;;;20.50;99.90;;;;;;5093566;28;20210;-66
2022/09/05 08:22:17;;;;;;;5.10;3.70;;;20.70;99.90;;;;;;5092826;28;20543;-66
2022/09/05 08:24:56;;;;;;;3.60;3.13;;;20.90;99.90;;;;;;5093000;28;20233;-66
2022/09/05 08:27:29;;;;;;;3.83;3.42;;;21.00;99.90;;;;;;5096536;28;20206;-66
2022/09/05 08:30:02;;;;;;;6.40;4.07;;;21.20;99.90;;;;;;5096969;28;20549;-67
2022/09/05 08:32:59;;;;;;;4.75;3.15;;;21.40;99.90;;;;;;5095903;28;20547;-68
2022/09/05 08:35:43;;;;;;;10.90;6.88;;;21.60;99.90;;;;;;5096856;28;20199;-67
2022/09/05 08:38:14;;;;;;;6.85;3.80;;;21.90;99.90;;;;;;5096656;28;20240;-66
2022/09/05 08:40:52;;;;;;;3.85;3.00;;;22.00;99.90;;;;;;5097286;28;20221;-66
2022/09/05 08:43:32;;;;;;;3.75;3.40;;;22.00;99.90;;;;;;5096709;28;20197;-66
2022/09/05 08:46:30;;;;;;;16.58;7.45;;;22.10;99.90;;;;;;5096367;28;20215;-67
2022/09/05 08:49:58;;;;;;;3.97;3.03;;;22.30;99.90;;;;;;5095662;28;20202;-66
2022/09/05 08:52:33;;;;;;;3.30;3.00;;;22.40;99.90;;;;;;5069621;28;20198;-67
2022/09/05 08:55:13;;;;;;;3.55;3.00;;;22.50;99.90;;;;;;5096519;28;20186;-66
2022/09/05 08:58:05;;;;;;;2.83;2.63;;;22.70;99.90;;;;;;5096411;28;20218;-67
2022/09/05 09:00:43;;;;;;;3.00;2.70;;;22.80;99.90;;;;;;5096441;28;20187;-66
2022/09/05 09:03:30;;;;;;;3.10;2.80;;;23.00;99.90;;;;;;5096408;28;20186;-68
2022/09/05 09:06:27;;;;;;;4.50;3.05;;;23.30;99.90;;;;;;5095164;28;20571;-67
2022/09/05 09:09:11;;;;;;;3.83;2.70;;;23.50;99.90;;;;;;5096158;28;20210;-66
2022/09/05 09:11:48;;;;;;;4.50;2.88;;;23.50;99.90;;;;;;5096307;28;20206;-68
2022/09/05 09:14:37;;;;;;;2.75;2.50;;;23.50;99.90;;;;;;5096141;28;20556;-66
2022/09/05 09:17:19;;;;;;;3.15;2.42;;;23.60;99.90;;;;;;5095869;28;20202;-67
2022/09/05 09:19:52;;;;;;;3.03;2.60;;;23.60;99.90;;;;;;5095052;28;20183;-67
2022/09/05 09:22:36;;;;;;;3.55;2.65;;;23.90;99.90;;;;;;5095044;28;20198;-67
2022/09/05 09:25:10;;;;;;;5.18;2.65;;;24.20;99.90;;;;;;5075586;28;20536;-68
2022/09/05 09:28:18;;;;;;;3.72;2.53;;;24.50;99.90;;;;;;5075547;28;20211;-67
2022/09/05 09:31:13;;;;;;;2.63;2.40;;;24.60;99.90;;;;;;5075753;28;20180;-68
2022/09/05 09:33:49;;;;;;;5.43;3.00;;;24.80;99.90;;;;;;5075496;28;20194;-67
2022/09/05 09:36:51;;;;;;;3.22;2.50;;;25.00;98.50;;;;;;5075398;28;20190;-67
2022/09/05 09:39:29;;;;;;;3.45;2.67;;;25.10;98.60;;;;;;5074690;28;20194;-67
2022/09/05 09:42:33;;;;;;;3.53;2.50;;;25.30;98.50;;;;;;5075325;28;20554;-68
2022/09/05 09:45:16;;;;;;;2.60;2.10;;;25.60;96.70;;;;;;5070858;28;20199;-68
2022/09/05 09:48:43;;;;;;;2.78;2.15;;;25.90;96.40;;;;;;5075101;28;20226;-68
2022/09/05 09:51:30;;;;;;;3.80;2.13;;;26.30;93.50;;;;;;5075416;28;20564;-67
2022/09/05 09:54:15;;;;;;;2.75;1.90;;;26.40;93.50;;;;;;5075178;28;20664;-66
2022/09/05 09:57:05;;;;;;;7.18;2.60;;;26.60;93.90;;;;;;5078199;28;20672;-67
2022/09/05 10:00:02;;;;;;;2.20;1.88;;;27.00;91.60;;;;;;5095336;28;20209;-67
2022/09/05 10:03:03;;;;;;;2.42;2.17;;;27.40;91.30;;;;;;5095206;28;20189;-67
2022/09/05 10:06:29;;;;;;;2.53;2.03;;;27.50;91.20;;;;;;5095061;28;20229;-69
2022/09/05 10:09:31;;;;;;;2.88;2.05;;;27.40;91.60;;;;;;5095049;28;20205;-68
2022/09/05 10:12:48;;;;;;;1.98;1.70;;;27.80;90.10;;;;;;5095184;28;20182;-69
2022/09/05 10:15:50;;;;;;;3.00;1.73;;;28.00;88.80;;;;;;5089516;28;20208;-67
2022/09/05 10:18:35;;;;;;;3.00;1.90;;;28.10;86.90;;;;;;5085283;28;20217;-68
2022/09/05 10:21:47;;;;;;;2.17;1.80;;;28.30;86.00;;;;;;5094846;28;20193;-68
2022/09/05 10:25:03;;;;;;;3.38;2.05;;;28.30;85.10;;;;;;5094833;28;20190;-67
2022/09/05 10:28:03;;;;;;;3.50;1.70;;;28.40;86.20;;;;;;5094617;28;20225;-67
2022/09/05 10:30:44;;;;;;;2.58;1.58;;;28.10;87.80;;;;;;5092726;28;20571;-67
2022/09/05 10:33:39;;;;;;;3.63;2.20;;;28.20;82.70;;;;;;5074322;28;20191;-68
2022/09/05 10:36:30;;;;;;;1.92;1.70;;;28.60;82.30;;;;;;5074504;28;20188;-67
2022/09/05 10:39:13;;;;;;;1.90;1.70;;;28.50;83.40;;;;;;5074230;28;20218;-67
2022/09/05 10:41:49;;;;;;;2.78;1.60;;;28.60;79.90;;;;;;5074265;28;20196;-68
2022/09/05 10:44:32;;;;;;;2.00;1.60;;;28.90;78.50;;;;;;5074357;28;20194;-67
2022/09/05 10:47:16;;;;;;;1.58;1.48;;;29.10;76.00;;;;;;5073943;28;20719;-67
2022/09/05 10:49:49;;;;;;;1.83;1.58;;;29.10;76.80;;;;;;5092174;28;20182;-68
2022/09/05 10:52:24;;;;;;;3.58;1.92;;;29.30;78.20;;;;;;5094274;28;20187;-67
2022/09/05 10:55:17;;;;;;;2.83;1.33;;;29.40;77.40;;;;;;5094205;28;20196;-68
2022/09/05 10:57:59;;;;;;;2.17;1.55;;;29.50;76.10;;;;;;5094090;28;20207;-68
2022/09/05 11:00:52;;;;;;;1.73;1.58;;;29.40;76.90;;;;;;5094118;28;20182;-68
2022/09/05 11:03:48;;;;;;;3.25;1.67;;;29.70;75.50;;;;;;5093987;28;20193;-68
2022/09/05 11:06:21;;;;;;;2.80;1.40;;;30.00;71.00;;;;;;5092940;28;20198;-68
2022/09/05 11:09:03;;;;;;;2.17;1.70;;;30.00;70.30;;;;;;5093873;28;20217;-69
2022/09/05 11:11:44;;;;;;;1.90;1.55;;;29.90;75.10;;;;;;5093979;28;20544;-68
2022/09/05 11:14:35;;;;;;;2.47;1.50;;;30.10;70.30;;;;;;5094117;28;20182;-67
2022/09/05 11:17:14;;;;;;;1.75;1.55;;;30.10;70.70;;;;;;5089190;28;20207;-68
2022/09/05 11:19:46;;;;;;;3.90;1.70;;;30.30;71.60;;;;;;5073493;28;20649;-67
2022/09/05 11:22:16;;;;;;;2.65;1.63;;;30.40;71.40;;;;;;5073944;28;20700;-67
2022/09/05 11:24:55;;;;;;;3.05;1.40;;;30.20;72.50;;;;;;5072365;28;20183;-67
2022/09/05 11:27:35;;;;;;;2.22;1.45;;;30.30;70.10;;;;;;5073565;28;20235;-67
2022/09/05 11:30:07;;;;;;;2.25;1.50;;;30.20;70.30;;;;;;5073353;28;20183;-67
2022/09/05 11:33:16;;;;;;;2.45;1.50;;;30.60;70.50;;;;;;5073396;28;20187;-67
2022/09/05 11:36:09;;;;;;;2.55;1.38;;;30.70;70.00;;;;;;5011602;28;20192;-68
2022/09/05 11:39:11;;;;;;;1.42;1.23;;;30.70;72.20;;;;;;5011996;28;20235;-68
2022/09/05 11:42:15;;;;;;;1.50;1.40;;;30.60;65.30;;;;;;5073315;28;20183;-67
2022/09/05 11:45:00;;;;;;;1.63;1.30;;;30.00;67.00;;;;;;5073310;28;20202;-67
2022/09/05 11:48:14;;;;;;;1.30;1.20;;;29.60;69.30;;;;;;5072873;28;20615;-68
2022/09/05 11:51:17;;;;;;;4.45;1.48;;;29.60;70.10;;;;;;5073107;28;20191;-67
2022/09/05 11:54:45;;;;;;;1.98;1.48;;;29.80;68.70;;;;;;5073111;28;20657;-66
2022/09/05 11:57:31;;;;;;;1.90;1.50;;;29.60;68.20;;;;;;5033118;28;20231;-68
2022/09/05 12:00:16;;;;;;;2.33;1.70;;;29.40;68.90;;;;;;5072624;28;20195;-68
2022/09/05 12:03:38;;;;;;;1.77;1.50;;;29.20;74.10;;;;;;5073060;28;20544;-69
2022/09/05 12:06:40;;;;;;;2.50;1.40;;;29.50;69.00;;;;;;5072919;28;20553;-68
2022/09/05 12:09:30;;;;;;;2.13;1.75;;;29.70;71.00;;;;;;5073037;28;20529;-68
2022/09/05 12:12:11;;;;;;;3.50;1.85;;;29.90;71.40;;;;;;5073124;28;20657;-67
2022/09/05 12:15:25;;;;;;;2.42;1.73;;;29.90;73.50;;;;;;5072795;28;20647;-66
2022/09/05 12:18:04;;;;;;;2.13;1.55;;;30.30;71.90;;;;;;5073031;28;20218;-67
2022/09/05 12:21:03;;;;;;;2.47;1.50;;;30.40;71.40;;;;;;5091334;28;20206;-67
2022/09/05 12:23:50;;;;;;;1.70;1.50;;;30.80;66.40;;;;;;5092969;28;20199;-68
2022/09/05 12:26:44;;;;;;;2.25;1.58;;;30.90;67.50;;;;;;5092854;28;20225;-67
2022/09/05 12:29:36;;;;;;;3.50;1.67;;;30.90;67.90;;;;;;5091910;28;20183;-68
2022/09/05 12:32:23;;;;;;;2.95;1.77;;;31.20;66.00;;;;;;5092893;28;20182;-68
2022/09/05 12:35:12;;;;;;;1.50;1.40;;;31.40;65.80;;;;;;5093069;28;20190;-67
2022/09/05 12:38:13;;;;;;;1.40;1.20;;;31.30;66.10;;;;;;5092815;28;20680;-67
2022/09/05 12:41:07;;;;;;;2.33;1.52;;;31.40;65.30;;;;;;5092803;28;20183;-68
2022/09/05 12:44:22;;;;;;;2.45;2.05;;;31.30;68.50;;;;;;5093033;28;20524;-68
2022/09/05 12:47:10;;;;;;;4.05;2.40;;;31.40;64.90;;;;;;5085214;28;20199;-67
2022/09/05 12:49:59;;;;;;;4.53;1.92;;;31.50;66.50;;;;;;5072634;28;20192;-67
2022/09/05 12:52:43;;;;;;;3.03;1.45;;;31.70;62.50;;;;;;5072525;28;20187;-67
2022/09/05 12:55:22;;;;;;;1.50;1.40;;;31.60;61.90;;;;;;5072667;28;20664;-68
2022/09/05 12:57:57;;;;;;;2.65;1.50;;;31.20;63.50;;;;;;5072363;28;20230;-68
2022/09/05 13:00:47;;;;;;;2.15;1.40;;;30.80;63.00;;;;;;5072818;28;20175;-69
2022/09/05 13:03:46;;;;;;;1.75;1.50;;;30.30;64.80;;;;;;5072806;28;20218;-68
2022/09/05 13:06:39;;;;;;;2.72;1.48;;;30.00;65.50;;;;;;5072404;28;20191;-68
2022/09/05 13:09:16;;;;;;;2.15;1.48;;;29.90;63.90;;;;;;5072473;28;20238;-67
2022/09/05 13:11:49;;;;;;;2.35;1.40;;;30.00;64.20;;;;;;5072984;28;20210;-68
2022/09/05 13:14:52;;;;;;;1.30;1.20;;;30.10;65.90;;;;;;5075949;28;20541;-69
2022/09/05 13:17:46;;;;;;;2.67;1.38;;;30.20;64.80;;;;;;5075874;28;20678;-67
2022/09/05 13:20:24;;;;;;;3.08;1.50;;;30.50;63.70;;;;;;5083417;28;20202;-66
2022/09/05 13:22:55;;;;;;;2.35;1.60;;;30.40;62.70;;;;;;5075845;28;20203;-68
2022/09/05 13:25:27;;;;;;;1.60;1.50;;;30.40;63.20;;;;;;5075890;28;20195;-67
2022/09/05 13:28:02;;;;;;;1.75;1.52;;;30.10;62.20;;;;;;5075543;28;20582;-67
2022/09/05 13:30:35;;;;;;;1.95;1.30;;;29.80;63.50;;;;;;5075643;28;20190;-66
2022/09/05 13:33:27;;;;;;;3.10;1.65;;;29.60;64.30;;;;;;5075607;28;20176;-67
2022/09/05 13:36:22;;;;;;;1.50;1.40;;;29.40;65.50;;;;;;5075534;28;20179;-67
2022/09/05 13:39:16;;;;;;;2.65;1.50;;;29.20;66.30;;;;;;5075760;28;20219;-68
2022/09/05 13:41:50;;;;;;;3.65;1.90;;;29.00;69.90;;;;;;5075583;28;20203;-68
2022/09/05 13:44:24;;;;;;;1.67;1.40;;;28.80;69.20;;;;;;5075567;28;20220;-67
2022/09/05 13:47:00;;;;;;;2.72;1.80;;;28.50;68.70;;;;;;5075252;28;20187;-67
2022/09/05 13:49:35;;;;;;;2.25;1.83;;;28.30;69.60;;;;;;5075171;28;20219;-67
2022/09/05 13:52:24;;;;;;;2.25;1.80;;;28.20;71.90;;;;;;5075201;28;20554;-67
2022/09/05 13:55:09;;;;;;;2.50;1.80;;;28.00;68.00;;;;;;5079515;28;20198;-67
2022/09/05 13:57:41;;;;;;;2.85;1.35;;;28.30;67.50;;;;;;5095489;28;20222;-67
2022/09/05 14:00:50;;;;;;;3.80;1.77;;;28.60;66.50;;;;;;5095354;28;20186;-67
2022/09/05 14:03:41;;;;;;;2.20;1.30;;;28.90;65.70;;;;;;5095263;28;20312;-67
2022/09/05 14:06:47;;;;;;;6.30;1.80;;;29.10;65.80;;;;;;5095256;28;20193;-67
2022/09/05 14:09:32;;;;;;;2.20;1.42;;;29.30;64.60;;;;;;5092658;28;20229;-68
2022/09/05 14:12:15;;;;;;;3.42;1.60;;;29.40;66.50;;;;;;5094014;28;20199;-67
2022/09/05 14:14:49;;;;;;;2.92;1.30;;;29.50;69.20;;;;;;5095028;28;20190;-66
2022/09/05 14:17:56;;;;;;;1.92;1.40;;;29.20;69.00;;;;;;5088764;28;20211;-68
2022/09/05 14:23:20;;;;;;;2.05;1.33;;;29.50;62.90;;;;;;5073661;28;20583;-68
2022/09/05 14:25:55;;;;;;;1.67;1.58;;;29.30;64.90;;;;;;5074566;28;20664;-68
2022/09/05 14:28:30;;;;;;;1.20;1.10;;;29.10;68.70;;;;;;5074771;28;20222;-68
2022/09/05 14:31:07;;;;;;;2.10;1.90;;;28.80;70.00;;;;;;5073321;28;20183;-68
2022/09/05 14:34:26;;;;;;;2.45;1.60;;;28.80;63.90;;;;;;5074462;28;20191;-69
2022/09/05 14:37:23;;;;;;;1.95;1.60;;;28.60;64.20;;;;;;5074079;28;20230;-69